TimeCST,TemperatureF,Dew PointF,Humidity,Sea Level PressureIn,VisibilityMPH,Wind Direction,Wind SpeedMPH,Gust SpeedMPH,PrecipitationIn,Events,Conditions,WindDirDegrees,DateUTC
12:15 AM,32.0,30.2,93,29.73,0.5,NE,18.4,25.3,0.04,Fog-Snow,Snow,50,2013-02-26 06:15:00
12:55 AM,32.0,30.9,96,29.74,0.5,NE,20.7,27.6,0.12,Fog-Snow,Snow,50,2013-02-26 06:55:00
1:16 AM,32.0,30.2,93,29.69,0.2,NE,19.6,-,0.07,Fog-Snow,Heavy Snow,50,2013-02-26 07:16:00
1:50 AM,32.0,30.2,93,29.66,0.5,NE,24.2,31.1,0.16,Fog-Snow,Snow,40,2013-02-26 07:50:00
1:55 AM,32.0,30.9,96,29.69,0.5,NE,21.9,36.8,0.17,Fog-Snow,Snow,50,2013-02-26 07:55:00
2:55 AM,32.0,30.9,96,29.65,0.5,NE,23.0,27.6,0.10,Fog-Snow,Snow,40,2013-02-26 08:55:00
3:55 AM,30.9,30.9,100,29.62,0.5,NE,21.9,-,0.13,Fog-Snow,Snow,40,2013-02-26 09:55:00
4:55 AM,30.9,30.9,100,29.58,0.5,NNE,24.2,-,0.11,Fog-Snow,Snow,30,2013-02-26 10:55:00
5:03 AM,30.2,30.2,100,29.55,0.5,NNE,23.0,32.2,0.02,Fog-Snow,Snow,30,2013-02-26 11:03:00
5:55 AM,30.9,30.0,96,29.57,0.5,NNE,29.9,38.0,0.09,Fog-Snow,Snow,20,2013-02-26 11:55:00
6:22 AM,30.2,30.2,100,29.52,0.5,North,-9999.0,-,0.04,Fog-Snow,Snow,0,2013-02-26 12:22:00
6:29 AM,30.2,28.4,93,29.53,0.5,NNE,26.5,35.7,0.04,Fog,Light Freezing Fog,30,2013-02-26 12:29:00
6:55 AM,30.9,30.0,96,29.56,0.5,NNE,25.3,32.2,0.07,Fog,Light Freezing Fog,20,2013-02-26 12:55:00
7:30 AM,30.2,30.2,100,29.52,0.2,NNE,25.3,32.2,N/A,Fog,Light Freezing Fog,20,2013-02-26 13:30:00
7:55 AM,30.9,30.9,100,29.55,0.2,NNE,24.2,34.5,0.05,Fog,Light Freezing Fog,20,2013-02-26 13:55:00
8:55 AM,30.9,30.0,96,29.56,0.5,NNE,23.0,31.1,0.02,Fog,Light Freezing Fog,20,2013-02-26 14:55:00
9:55 AM,30.9,30.0,96,29.56,0.5,NNE,23.0,29.9,0.02,Fog,Light Freezing Fog,20,2013-02-26 15:55:00
10:25 AM,32.0,30.2,93,29.52,0.8,NNE,21.9,28.8,0.01,,Overcast,20,2013-02-26 16:25:00
10:38 AM,32.0,30.2,93,29.52,0.5,NNE,23.0,33.4,0.01,Fog,Fog,20,2013-02-26 16:38:00
10:55 AM,32.0,30.0,92,29.55,0.5,NNE,20.7,-,0.01,Fog-Snow,Light Snow,20,2013-02-26 16:55:00
11:32 AM,32.0,30.2,93,29.52,0.8,NNE,19.6,28.8,0.00,Snow,Light Snow,20,2013-02-26 17:32:00
11:51 AM,32.0,30.2,93,29.53,1.0,North,20.7,-,0.00,,Overcast,10,2013-02-26 17:51:00
11:55 AM,32.0,30.0,92,29.56,1.0,NNE,20.7,-,0.00,,Overcast,20,2013-02-26 17:55:00
12:44 PM,32.0,30.2,93,29.51,0.8,NNE,21.9,28.8,0.00,Snow,Light Snow,20,2013-02-26 18:44:00
12:55 PM,32.0,30.0,92,29.55,0.8,North,18.4,26.5,0.00,Snow,Light Snow,10,2013-02-26 18:55:00
1:23 PM,32.0,30.2,93,29.52,1.0,NNE,20.7,-,0.00,Snow,Light Snow,20,2013-02-26 19:23:00
1:33 PM,32.0,30.2,93,29.52,1.8,NNE,18.4,27.6,0.00,,Overcast,20,2013-02-26 19:33:00
1:40 PM,33.8,30.2,87,29.53,3.0,NNE,19.6,26.5,0.00,,Overcast,20,2013-02-26 19:40:00
1:55 PM,33.1,28.9,85,29.57,4.0,NNE,20.7,27.6,0.00,,Overcast,20,2013-02-26 19:55:00
2:55 PM,33.1,28.9,85,29.60,6.0,North,15.0,25.3,N/A,,Overcast,10,2013-02-26 20:55:00
3:55 PM,32.0,28.9,88,29.62,6.0,North,18.4,-,N/A,,Overcast,10,2013-02-26 21:55:00
4:50 PM,32.0,28.4,87,29.61,2.0,North,17.3,24.2,0.00,Snow,Light Snow,360,2013-02-26 22:50:00
4:55 PM,32.0,28.0,85,29.65,2.5,North,12.7,24.2,0.00,Snow,Light Snow,360,2013-02-26 22:55:00
5:11 PM,32.0,28.4,87,29.62,3.0,North,18.4,-,0.00,,Overcast,10,2013-02-26 23:11:00
5:38 PM,32.0,28.4,87,29.63,4.0,North,16.1,24.2,0.00,,Overcast,360,2013-02-26 23:38:00
5:55 PM,32.0,28.0,85,29.68,6.0,North,13.8,21.9,0.00,,Overcast,350,2013-02-26 23:55:00
6:40 PM,30.2,28.4,93,29.67,5.0,North,17.3,20.7,N/A,,Overcast,350,2013-02-27 00:40:00
6:55 PM,30.9,28.0,89,29.71,6.0,North,12.7,-,N/A,,Overcast,350,2013-02-27 00:55:00
7:11 PM,30.2,28.4,93,29.68,2.5,North,10.4,-,0.00,Snow,Light Snow,350,2013-02-27 01:11:00
7:14 PM,30.2,28.4,93,29.68,1.8,North,8.1,-,0.00,Snow,Light Snow,350,2013-02-27 01:14:00
7:21 PM,30.2,28.4,93,29.68,1.2,NNW,8.1,-,0.01,Snow,Light Snow,340,2013-02-27 01:21:00
7:38 PM,30.2,28.4,93,29.68,1.5,North,11.5,-,0.01,Snow,Light Snow,350,2013-02-27 01:38:00
7:55 PM,30.9,28.9,92,29.72,1.2,North,11.5,-,0.02,Snow,Light Snow,350,2013-02-27 01:55:00
8:18 PM,30.2,28.4,93,29.69,2.0,North,11.5,-,0.01,Snow,Light Snow,350,2013-02-27 02:18:00
8:26 PM,30.2,28.4,93,29.69,1.8,North,11.5,-,0.01,Snow,Light Snow,350,2013-02-27 02:26:00
8:53 PM,30.2,28.4,93,29.69,1.8,North,11.5,-,0.01,Snow,Light Snow,350,2013-02-27 02:53:00
8:55 PM,30.9,28.9,92,29.73,1.8,North,11.5,-,0.01,Snow,Light Snow,350,2013-02-27 02:55:00
9:19 PM,30.2,28.4,93,29.70,1.5,NNW,10.4,-,0.01,Snow,Light Snow,340,2013-02-27 03:19:00
9:38 PM,30.2,28.4,93,29.70,2.0,NNW,9.2,-,0.01,Snow,Light Snow,340,2013-02-27 03:38:00
9:43 PM,30.2,28.4,93,29.70,1.8,NNW,11.5,-,0.02,Snow,Light Snow,340,2013-02-27 03:43:00
9:48 PM,30.2,28.4,93,29.71,1.8,NNW,9.2,-,0.02,Snow,Light Snow,340,2013-02-27 03:48:00
9:50 PM,30.2,28.4,93,29.71,2.0,NNW,9.2,-,0.02,Snow,Light Snow,340,2013-02-27 03:50:00
10:17 PM,30.2,28.4,93,29.71,4.0,NNW,10.4,-,0.00,Snow,Light Snow,340,2013-02-27 04:17:00
10:30 PM,30.2,28.4,93,29.71,2.0,NNW,10.4,-,0.00,Snow,Light Snow,330,2013-02-27 04:30:00
10:50 PM,30.2,28.4,93,29.72,2.5,NW,10.4,-,0.01,Snow,Light Snow,320,2013-02-27 04:50:00
10:55 PM,30.9,28.9,92,29.75,2.5,NNW,9.2,-,0.01,Snow,Light Snow,330,2013-02-27 04:55:00
11:06 PM,30.2,28.4,93,29.72,4.0,NW,9.2,-,0.00,Snow,Light Snow,320,2013-02-27 05:06:00
11:55 PM,30.9,28.9,92,29.75,3.0,NNW,6.9,-,0.00,Snow,Light Snow,330,2013-02-27 05:55:00